sensor_id;sensor_type;location;lat;lon;timestamp;P1;durP1;ratioP1;P2;durP2;ratioP2
75375;SDS011;63958;52.004;5.908;2022-11-20T00:01:40;7.53;;;5.07;;
75375;SDS011;63958;52.004;5.908;2022-11-20T00:04:12;6.33;;;4.00;;
75375;SDS011;63958;52.004;5.908;2022-11-20T00:06:41;7.85;;;4.50;;
75375;SDS011;63958;52.004;5.908;2022-11-20T00:09:10;6.67;;;4.50;;
75375;SDS011;63958;52.004;5.908;2022-11-20T00:11:39;5.93;;;4.20;;
75375;SDS011;63958;52.004;5.908;2022-11-20T00:14:08;12.50;;;6.40;;
75375;SDS011;63958;52.004;5.908;2022-11-20T00:16:38;9.77;;;5.10;;
75375;SDS011;63958;52.004;5.908;2022-11-20T00:19:07;9.23;;;5.33;;
75375;SDS011;63958;52.004;5.908;2022-11-20T00:21:40;6.83;;;4.10;;
75375;SDS011;63958;52.004;5.908;2022-11-20T00:26:38;6.23;;;4.00;;
75375;SDS011;63958;52.004;5.908;2022-11-20T00:29:08;6.70;;;3.97;;
75375;SDS011;63958;52.004;5.908;2022-11-20T00:31:37;8.70;;;4.67;;
75375;SDS011;63958;52.004;5.908;2022-11-20T00:34:06;9.77;;;4.50;;
75375;SDS011;63958;52.004;5.908;2022-11-20T00:36:35;7.83;;;5.00;;
75375;SDS011;63958;52.004;5.908;2022-11-20T00:39:07;7.80;;;4.30;;
75375;SDS011;63958;52.004;5.908;2022-11-20T00:41:36;5.67;;;3.63;;
75375;SDS011;63958;52.004;5.908;2022-11-20T00:44:05;7.47;;;4.30;;
75375;SDS011;63958;52.004;5.908;2022-11-20T00:46:33;7.00;;;3.90;;
75375;SDS011;63958;52.004;5.908;2022-11-20T00:49:02;7.17;;;4.03;;
75375;SDS011;63958;52.004;5.908;2022-11-20T00:51:31;6.63;;;4.30;;
75375;SDS011;63958;52.004;5.908;2022-11-20T00:54:00;7.27;;;4.63;;
75375;SDS011;63958;52.004;5.908;2022-11-20T00:56:31;8.67;;;4.77;;
75375;SDS011;63958;52.004;5.908;2022-11-20T00:59:00;7.30;;;4.40;;
75375;SDS011;63958;52.004;5.908;2022-11-20T01:01:29;8.37;;;4.97;;
75375;SDS011;63958;52.004;5.908;2022-11-20T01:03:59;7.40;;;4.53;;
75375;SDS011;63958;52.004;5.908;2022-11-20T01:06:29;5.90;;;4.10;;
75375;SDS011;63958;52.004;5.908;2022-11-20T01:09:00;6.83;;;4.17;;
75375;SDS011;63958;52.004;5.908;2022-11-20T01:11:33;5.53;;;3.97;;
75375;SDS011;63958;52.004;5.908;2022-11-20T01:14:04;6.10;;;3.83;;
75375;SDS011;63958;52.004;5.908;2022-11-20T01:16:36;5.10;;;3.33;;
75375;SDS011;63958;52.004;5.908;2022-11-20T01:19:07;6.90;;;4.60;;
75375;SDS011;63958;52.004;5.908;2022-11-20T01:21:39;6.45;;;3.80;;
75375;SDS011;63958;52.004;5.908;2022-11-20T01:24:10;8.13;;;4.50;;
75375;SDS011;63958;52.004;5.908;2022-11-20T01:26:44;8.40;;;4.80;;
75375;SDS011;63958;52.004;5.908;2022-11-20T01:31:43;6.53;;;4.23;;
75375;SDS011;63958;52.004;5.908;2022-11-20T01:34:13;6.00;;;3.93;;
75375;SDS011;63958;52.004;5.908;2022-11-20T01:36:44;5.40;;;3.30;;
75375;SDS011;63958;52.004;5.908;2022-11-20T01:39:14;7.10;;;4.23;;
75375;SDS011;63958;52.004;5.908;2022-11-20T01:41:47;7.73;;;4.23;;
75375;SDS011;63958;52.004;5.908;2022-11-20T01:47:28;7.17;;;4.30;;
75375;SDS011;63958;52.004;5.908;2022-11-20T01:50:03;8.80;;;5.00;;
75375;SDS011;63958;52.004;5.908;2022-11-20T01:52:38;6.83;;;4.47;;
75375;SDS011;63958;52.004;5.908;2022-11-20T01:55:10;7.37;;;4.40;;
75375;SDS011;63958;52.004;5.908;2022-11-20T01:57:44;9.23;;;5.70;;
75375;SDS011;63958;52.004;5.908;2022-11-20T02:00:15;8.75;;;4.10;;
75375;SDS011;63958;52.004;5.908;2022-11-20T02:02:47;7.27;;;4.10;;
75375;SDS011;63958;52.004;5.908;2022-11-20T02:05:21;8.40;;;4.77;;
75375;SDS011;63958;52.004;5.908;2022-11-20T02:07:52;9.05;;;5.30;;
75375;SDS011;63958;52.004;5.908;2022-11-20T02:10:23;8.37;;;5.27;;
75375;SDS011;63958;52.004;5.908;2022-11-20T02:12:55;6.67;;;4.40;;
75375;SDS011;63958;52.004;5.908;2022-11-20T02:15:37;7.33;;;4.70;;
75375;SDS011;63958;52.004;5.908;2022-11-20T02:18:06;8.30;;;4.37;;
75375;SDS011;63958;52.004;5.908;2022-11-20T02:20:36;9.63;;;4.57;;
75375;SDS011;63958;52.004;5.908;2022-11-20T02:23:07;7.47;;;4.30;;
75375;SDS011;63958;52.004;5.908;2022-11-20T02:25:43;6.60;;;4.20;;
75375;SDS011;63958;52.004;5.908;2022-11-20T02:28:16;7.00;;;4.23;;
75375;SDS011;63958;52.004;5.908;2022-11-20T02:30:45;7.53;;;4.60;;
75375;SDS011;63958;52.004;5.908;2022-11-20T02:33:14;7.87;;;4.63;;
75375;SDS011;63958;52.004;5.908;2022-11-20T02:35:44;7.17;;;3.90;;
75375;SDS011;63958;52.004;5.908;2022-11-20T02:38:14;6.30;;;4.27;;
75375;SDS011;63958;52.004;5.908;2022-11-20T02:40:46;8.60;;;5.00;;
75375;SDS011;63958;52.004;5.908;2022-11-20T02:43:15;9.73;;;5.20;;
75375;SDS011;63958;52.004;5.908;2022-11-20T02:45:44;7.83;;;4.70;;
75375;SDS011;63958;52.004;5.908;2022-11-20T02:48:13;7.77;;;4.60;;
75375;SDS011;63958;52.004;5.908;2022-11-20T02:50:42;8.50;;;4.53;;
75375;SDS011;63958;52.004;5.908;2022-11-20T02:53:11;9.07;;;5.23;;
75375;SDS011;63958;52.004;5.908;2022-11-20T02:55:40;6.47;;;4.70;;
75375;SDS011;63958;52.004;5.908;2022-11-20T02:58:11;7.80;;;5.03;;
75375;SDS011;63958;52.004;5.908;2022-11-20T03:00:40;7.33;;;4.80;;
75375;SDS011;63958;52.004;5.908;2022-11-20T03:03:09;9.23;;;5.30;;
75375;SDS011;63958;52.004;5.908;2022-11-20T03:05:38;8.50;;;4.90;;
75375;SDS011;63958;52.004;5.908;2022-11-20T03:08:07;7.50;;;4.20;;
75375;SDS011;63958;52.004;5.908;2022-11-20T03:10:36;9.70;;;5.50;;
75375;SDS011;63958;52.004;5.908;2022-11-20T03:13:04;7.17;;;4.27;;
75375;SDS011;63958;52.004;5.908;2022-11-20T03:15:37;6.77;;;4.60;;
75375;SDS011;63958;52.004;5.908;2022-11-20T03:18:06;7.37;;;4.70;;
75375;SDS011;63958;52.004;5.908;2022-11-20T03:20:35;7.30;;;4.53;;
75375;SDS011;63958;52.004;5.908;2022-11-20T03:23:04;8.37;;;5.10;;
75375;SDS011;63958;52.004;5.908;2022-11-20T03:25:33;7.23;;;4.57;;
75375;SDS011;63958;52.004;5.908;2022-11-20T03:28:02;6.70;;;4.57;;
75375;SDS011;63958;52.004;5.908;2022-11-20T03:30:31;8.10;;;4.63;;
75375;SDS011;63958;52.004;5.908;2022-11-20T03:33:02;7.57;;;4.80;;
75375;SDS011;63958;52.004;5.908;2022-11-20T03:35:31;9.80;;;5.57;;
75375;SDS011;63958;52.004;5.908;2022-11-20T03:38:00;7.73;;;4.77;;
75375;SDS011;63958;52.004;5.908;2022-11-20T03:40:29;7.63;;;4.67;;
75375;SDS011;63958;52.004;5.908;2022-11-20T03:42:58;7.57;;;4.83;;
75375;SDS011;63958;52.004;5.908;2022-11-20T03:45:27;8.73;;;4.93;;
75375;SDS011;63958;52.004;5.908;2022-11-20T03:47:55;7.50;;;4.80;;
75375;SDS011;63958;52.004;5.908;2022-11-20T03:50:27;7.90;;;4.83;;
75375;SDS011;63958;52.004;5.908;2022-11-20T03:52:56;7.40;;;4.27;;
75375;SDS011;63958;52.004;5.908;2022-11-20T03:55:25;8.27;;;5.40;;
75375;SDS011;63958;52.004;5.908;2022-11-20T03:57:53;7.00;;;4.43;;
75375;SDS011;63958;52.004;5.908;2022-11-20T04:00:22;8.83;;;5.07;;
75375;SDS011;63958;52.004;5.908;2022-11-20T04:02:51;7.60;;;4.53;;
75375;SDS011;63958;52.004;5.908;2022-11-20T04:05:20;7.63;;;4.53;;
75375;SDS011;63958;52.004;5.908;2022-11-20T04:07:51;8.47;;;5.60;;
75375;SDS011;63958;52.004;5.908;2022-11-20T04:10:20;7.50;;;4.50;;
75375;SDS011;63958;52.004;5.908;2022-11-20T04:12:49;11.13;;;5.23;;
75375;SDS011;63958;52.004;5.908;2022-11-20T04:15:18;9.27;;;5.03;;
75375;SDS011;63958;52.004;5.908;2022-11-20T04:17:47;9.90;;;5.60;;
75375;SDS011;63958;52.004;5.908;2022-11-20T04:20:16;6.33;;;4.10;;
75375;SDS011;63958;52.004;5.908;2022-11-20T04:22:45;8.07;;;5.27;;
75375;SDS011;63958;52.004;5.908;2022-11-20T04:25:16;10.03;;;5.17;;
75375;SDS011;63958;52.004;5.908;2022-11-20T04:27:45;8.47;;;5.00;;
75375;SDS011;63958;52.004;5.908;2022-11-20T04:30:14;9.00;;;5.20;;
75375;SDS011;63958;52.004;5.908;2022-11-20T04:32:43;7.20;;;4.53;;
75375;SDS011;63958;52.004;5.908;2022-11-20T04:35:12;7.40;;;4.60;;
75375;SDS011;63958;52.004;5.908;2022-11-20T04:37:41;6.73;;;4.00;;
75375;SDS011;63958;52.004;5.908;2022-11-20T04:40:10;6.77;;;4.50;;
75375;SDS011;63958;52.004;5.908;2022-11-20T04:42:42;7.43;;;4.93;;
75375;SDS011;63958;52.004;5.908;2022-11-20T04:45:11;7.83;;;4.73;;
75375;SDS011;63958;52.004;5.908;2022-11-20T04:47:40;8.67;;;5.20;;
75375;SDS011;63958;52.004;5.908;2022-11-20T04:50:09;10.03;;;5.07;;
75375;SDS011;63958;52.004;5.908;2022-11-20T04:52:38;9.47;;;5.07;;
75375;SDS011;63958;52.004;5.908;2022-11-20T04:55:07;8.00;;;4.90;;
75375;SDS011;63958;52.004;5.908;2022-11-20T04:57:36;7.07;;;4.37;;
75375;SDS011;63958;52.004;5.908;2022-11-20T05:00:08;8.07;;;4.90;;
75375;SDS011;63958;52.004;5.908;2022-11-20T05:02:38;9.70;;;4.90;;
75375;SDS011;63958;52.004;5.908;2022-11-20T05:05:07;8.50;;;4.80;;
75375;SDS011;63958;52.004;5.908;2022-11-20T05:07:36;7.80;;;4.70;;
75375;SDS011;63958;52.004;5.908;2022-11-20T05:10:08;7.50;;;4.70;;
75375;SDS011;63958;52.004;5.908;2022-11-20T05:12:37;9.05;;;5.38;;
75375;SDS011;63958;52.004;5.908;2022-11-20T05:15:09;7.07;;;4.03;;
75375;SDS011;63958;52.004;5.908;2022-11-20T05:17:38;6.93;;;4.68;;
75375;SDS011;63958;52.004;5.908;2022-11-20T05:20:07;7.30;;;4.63;;
75375;SDS011;63958;52.004;5.908;2022-11-20T05:22:37;7.67;;;4.90;;
75375;SDS011;63958;52.004;5.908;2022-11-20T05:25:06;8.60;;;5.03;;
75375;SDS011;63958;52.004;5.908;2022-11-20T05:27:35;6.60;;;4.37;;
75375;SDS011;63958;52.004;5.908;2022-11-20T05:30:05;8.57;;;5.17;;
75375;SDS011;63958;52.004;5.908;2022-11-20T05:32:38;9.33;;;5.80;;
75375;SDS011;63958;52.004;5.908;2022-11-20T05:35:07;11.47;;;5.83;;
75375;SDS011;63958;52.004;5.908;2022-11-20T05:37:36;10.03;;;4.90;;
75375;SDS011;63958;52.004;5.908;2022-11-20T05:40:05;8.17;;;5.07;;
75375;SDS011;63958;52.004;5.908;2022-11-20T05:42:35;9.10;;;5.33;;
75375;SDS011;63958;52.004;5.908;2022-11-20T05:45:05;8.10;;;4.77;;
75375;SDS011;63958;52.004;5.908;2022-11-20T05:47:37;7.30;;;4.50;;
75375;SDS011;63958;52.004;5.908;2022-11-20T05:50:06;8.87;;;5.20;;
75375;SDS011;63958;52.004;5.908;2022-11-20T05:52:35;10.13;;;5.77;;
75375;SDS011;63958;52.004;5.908;2022-11-20T05:55:05;8.03;;;5.00;;
75375;SDS011;63958;52.004;5.908;2022-11-20T05:57:34;10.50;;;5.27;;
75375;SDS011;63958;52.004;5.908;2022-11-20T06:00:04;8.47;;;5.37;;
75375;SDS011;63958;52.004;5.908;2022-11-20T06:02:36;10.27;;;6.03;;
75375;SDS011;63958;52.004;5.908;2022-11-20T06:05:05;12.17;;;6.37;;
75375;SDS011;63958;52.004;5.908;2022-11-20T06:07:35;9.90;;;5.93;;
75375;SDS011;63958;52.004;5.908;2022-11-20T06:10:04;11.73;;;6.07;;
75375;SDS011;63958;52.004;5.908;2022-11-20T06:12:33;11.70;;;6.17;;
75375;SDS011;63958;52.004;5.908;2022-11-20T06:15:03;9.83;;;5.77;;
75375;SDS011;63958;52.004;5.908;2022-11-20T06:17:32;10.90;;;6.47;;
75375;SDS011;63958;52.004;5.908;2022-11-20T06:20:04;11.10;;;6.23;;
75375;SDS011;63958;52.004;5.908;2022-11-20T06:22:34;8.33;;;5.60;;
75375;SDS011;63958;52.004;5.908;2022-11-20T06:25:03;11.23;;;6.70;;
75375;SDS011;63958;52.004;5.908;2022-11-20T06:27:32;11.37;;;6.37;;
75375;SDS011;63958;52.004;5.908;2022-11-20T06:30:01;10.27;;;6.23;;
75375;SDS011;63958;52.004;5.908;2022-11-20T06:32:30;10.20;;;5.80;;
75375;SDS011;63958;52.004;5.908;2022-11-20T06:34:59;7.90;;;5.30;;
75375;SDS011;63958;52.004;5.908;2022-11-20T06:37:30;9.57;;;5.80;;
75375;SDS011;63958;52.004;5.908;2022-11-20T06:39:59;10.37;;;6.30;;
75375;SDS011;63958;52.004;5.908;2022-11-20T06:42:28;11.63;;;6.13;;
75375;SDS011;63958;52.004;5.908;2022-11-20T06:44:57;9.90;;;5.77;;
75375;SDS011;63958;52.004;5.908;2022-11-20T06:47:26;10.10;;;6.13;;
75375;SDS011;63958;52.004;5.908;2022-11-20T06:49:54;9.90;;;6.13;;
75375;SDS011;63958;52.004;5.908;2022-11-20T06:52:23;12.17;;;6.90;;
75375;SDS011;63958;52.004;5.908;2022-11-20T06:54:55;10.67;;;6.60;;
75375;SDS011;63958;52.004;5.908;2022-11-20T06:57:24;9.33;;;5.47;;
75375;SDS011;63958;52.004;5.908;2022-11-20T06:59:53;11.33;;;7.27;;
75375;SDS011;63958;52.004;5.908;2022-11-20T07:02:22;11.77;;;6.87;;
75375;SDS011;63958;52.004;5.908;2022-11-20T07:04:50;8.80;;;5.43;;
75375;SDS011;63958;52.004;5.908;2022-11-20T07:07:19;12.03;;;6.87;;
75375;SDS011;63958;52.004;5.908;2022-11-20T07:09:48;9.50;;;6.23;;
75375;SDS011;63958;52.004;5.908;2022-11-20T07:12:20;10.83;;;5.90;;
75375;SDS011;63958;52.004;5.908;2022-11-20T07:14:48;11.13;;;6.50;;
75375;SDS011;63958;52.004;5.908;2022-11-20T07:17:17;11.63;;;6.20;;
75375;SDS011;63958;52.004;5.908;2022-11-20T07:19:46;11.43;;;6.90;;
75375;SDS011;63958;52.004;5.908;2022-11-20T07:22:15;11.97;;;6.60;;
75375;SDS011;63958;52.004;5.908;2022-11-20T07:24:47;11.90;;;6.23;;
75375;SDS011;63958;52.004;5.908;2022-11-20T07:27:16;11.60;;;7.00;;
75375;SDS011;63958;52.004;5.908;2022-11-20T07:29:47;9.17;;;5.83;;
75375;SDS011;63958;52.004;5.908;2022-11-20T07:32:16;12.00;;;6.10;;
75375;SDS011;63958;52.004;5.908;2022-11-20T07:34:45;11.23;;;5.83;;
75375;SDS011;63958;52.004;5.908;2022-11-20T07:37:14;10.20;;;5.90;;
75375;SDS011;63958;52.004;5.908;2022-11-20T07:39:43;10.43;;;6.30;;
75375;SDS011;63958;52.004;5.908;2022-11-20T07:42:12;12.80;;;6.20;;
75375;SDS011;63958;52.004;5.908;2022-11-20T07:44:41;11.10;;;6.03;;
75375;SDS011;63958;52.004;5.908;2022-11-20T07:47:12;8.97;;;5.73;;
75375;SDS011;63958;52.004;5.908;2022-11-20T07:49:41;8.03;;;4.77;;
75375;SDS011;63958;52.004;5.908;2022-11-20T07:52:10;7.93;;;4.90;;
75375;SDS011;63958;52.004;5.908;2022-11-20T07:54:39;6.10;;;4.03;;
75375;SDS011;63958;52.004;5.908;2022-11-20T07:57:08;7.30;;;3.83;;
75375;SDS011;63958;52.004;5.908;2022-11-20T07:59:37;7.60;;;4.50;;
75375;SDS011;63958;52.004;5.908;2022-11-20T08:02:09;14.53;;;8.53;;
75375;SDS011;63958;52.004;5.908;2022-11-20T08:04:41;11.50;;;6.07;;
75375;SDS011;63958;52.004;5.908;2022-11-20T08:07:10;13.57;;;6.83;;
75375;SDS011;63958;52.004;5.908;2022-11-20T08:09:39;12.53;;;7.53;;
75375;SDS011;63958;52.004;5.908;2022-11-20T08:12:08;8.63;;;4.83;;
75375;SDS011;63958;52.004;5.908;2022-11-20T08:14:50;9.82;;;4.85;;
75375;SDS011;63958;52.004;5.908;2022-11-20T08:17:21;7.27;;;4.90;;
75375;SDS011;63958;52.004;5.908;2022-11-20T08:19:52;8.93;;;6.27;;
75375;SDS011;63958;52.004;5.908;2022-11-20T08:22:21;16.03;;;10.60;;
75375;SDS011;63958;52.004;5.908;2022-11-20T08:24:50;20.30;;;11.77;;
75375;SDS011;63958;52.004;5.908;2022-11-20T08:27:19;12.10;;;8.33;;
75375;SDS011;63958;52.004;5.908;2022-11-20T08:29:48;17.80;;;10.73;;
75375;SDS011;63958;52.004;5.908;2022-11-20T08:32:16;15.80;;;8.57;;
75375;SDS011;63958;52.004;5.908;2022-11-20T08:34:45;11.97;;;7.33;;
75375;SDS011;63958;52.004;5.908;2022-11-20T08:37:17;14.13;;;9.63;;
75375;SDS011;63958;52.004;5.908;2022-11-20T08:39:46;9.90;;;6.10;;
75375;SDS011;63958;52.004;5.908;2022-11-20T08:42:15;7.07;;;4.20;;
75375;SDS011;63958;52.004;5.908;2022-11-20T08:44:43;6.00;;;3.93;;
75375;SDS011;63958;52.004;5.908;2022-11-20T08:47:12;15.27;;;9.37;;
75375;SDS011;63958;52.004;5.908;2022-11-20T08:49:41;18.30;;;11.00;;
75375;SDS011;63958;52.004;5.908;2022-11-20T08:52:10;18.80;;;10.83;;
75375;SDS011;63958;52.004;5.908;2022-11-20T08:54:41;20.57;;;10.73;;
75375;SDS011;63958;52.004;5.908;2022-11-20T08:57:10;13.73;;;8.20;;
75375;SDS011;63958;52.004;5.908;2022-11-20T08:59:39;18.40;;;9.77;;
75375;SDS011;63958;52.004;5.908;2022-11-20T09:02:08;14.17;;;8.10;;
75375;SDS011;63958;52.004;5.908;2022-11-20T09:04:37;15.70;;;9.13;;
75375;SDS011;63958;52.004;5.908;2022-11-20T09:07:06;12.27;;;6.83;;
75375;SDS011;63958;52.004;5.908;2022-11-20T09:09:35;8.13;;;4.83;;
75375;SDS011;63958;52.004;5.908;2022-11-20T09:12:06;8.20;;;4.93;;
75375;SDS011;63958;52.004;5.908;2022-11-20T09:14:35;7.27;;;4.40;;
75375;SDS011;63958;52.004;5.908;2022-11-20T09:17:04;8.90;;;5.10;;
75375;SDS011;63958;52.004;5.908;2022-11-20T09:19:33;6.90;;;4.37;;
75375;SDS011;63958;52.004;5.908;2022-11-20T09:22:02;8.93;;;5.83;;
75375;SDS011;63958;52.004;5.908;2022-11-20T09:24:31;7.97;;;4.87;;
75375;SDS011;63958;52.004;5.908;2022-11-20T09:27:03;10.17;;;5.83;;
75375;SDS011;63958;52.004;5.908;2022-11-20T09:29:35;6.40;;;4.60;;
75375;SDS011;63958;52.004;5.908;2022-11-20T09:32:04;9.37;;;5.83;;
75375;SDS011;63958;52.004;5.908;2022-11-20T09:34:33;11.67;;;6.57;;
75375;SDS011;63958;52.004;5.908;2022-11-20T09:37:02;11.33;;;6.97;;
75375;SDS011;63958;52.004;5.908;2022-11-20T09:39:31;12.27;;;7.30;;
75375;SDS011;63958;52.004;5.908;2022-11-20T09:42:09;9.90;;;5.87;;
75375;SDS011;63958;52.004;5.908;2022-11-20T09:44:57;8.47;;;6.37;;
75375;SDS011;63958;52.004;5.908;2022-11-20T09:47:37;7.77;;;5.07;;
75375;SDS011;63958;52.004;5.908;2022-11-20T09:50:20;7.20;;;5.05;;
75375;SDS011;63958;52.004;5.908;2022-11-20T09:53:01;9.57;;;4.60;;
75375;SDS011;63958;52.004;5.908;2022-11-20T09:55:41;13.80;;;8.33;;
75375;SDS011;63958;52.004;5.908;2022-11-20T09:58:15;18.23;;;12.03;;
75375;SDS011;63958;52.004;5.908;2022-11-20T10:01:04;19.37;;;10.77;;
75375;SDS011;63958;52.004;5.908;2022-11-20T10:03:41;14.17;;;8.00;;
75375;SDS011;63958;52.004;5.908;2022-11-20T10:06:17;10.50;;;6.90;;
75375;SDS011;63958;52.004;5.908;2022-11-20T10:08:51;14.48;;;8.93;;
75375;SDS011;63958;52.004;5.908;2022-11-20T10:11:28;19.30;;;12.03;;
75375;SDS011;63958;52.004;5.908;2022-11-20T10:14:08;19.50;;;12.07;;
75375;SDS011;63958;52.004;5.908;2022-11-20T10:16:46;17.20;;;10.70;;
75375;SDS011;63958;52.004;5.908;2022-11-20T10:19:29;13.70;;;8.30;;
75375;SDS011;63958;52.004;5.908;2022-11-20T10:22:20;7.10;;;4.90;;
75375;SDS011;63958;52.004;5.908;2022-11-20T10:25:02;7.13;;;4.33;;
75375;SDS011;63958;52.004;5.908;2022-11-20T10:27:39;6.27;;;3.87;;
75375;SDS011;63958;52.004;5.908;2022-11-20T10:30:26;10.47;;;7.13;;
75375;SDS011;63958;52.004;5.908;2022-11-20T10:32:57;17.25;;;9.35;;
75375;SDS011;63958;52.004;5.908;2022-11-20T10:35:33;20.38;;;11.75;;
75375;SDS011;63958;52.004;5.908;2022-11-20T10:38:09;16.58;;;10.15;;
75375;SDS011;63958;52.004;5.908;2022-11-20T10:40:44;21.30;;;12.07;;
75375;SDS011;63958;52.004;5.908;2022-11-20T10:43:18;16.55;;;10.35;;
75375;SDS011;63958;52.004;5.908;2022-11-20T10:45:55;13.43;;;8.87;;
75375;SDS011;63958;52.004;5.908;2022-11-20T10:48:27;16.05;;;10.25;;
75375;SDS011;63958;52.004;5.908;2022-11-20T10:51:10;17.50;;;10.65;;
75375;SDS011;63958;52.004;5.908;2022-11-20T10:53:45;8.97;;;6.13;;
75375;SDS011;63958;52.004;5.908;2022-11-20T10:56:23;7.57;;;5.22;;
75375;SDS011;63958;52.004;5.908;2022-11-20T11:02:17;12.85;;;8.00;;
75375;SDS011;63958;52.004;5.908;2022-11-20T11:04:47;10.15;;;6.07;;
75375;SDS011;63958;52.004;5.908;2022-11-20T11:07:19;10.50;;;6.43;;
75375;SDS011;63958;52.004;5.908;2022-11-20T11:09:52;16.50;;;10.82;;
75375;SDS011;63958;52.004;5.908;2022-11-20T11:12:23;21.02;;;12.70;;
75375;SDS011;63958;52.004;5.908;2022-11-20T11:14:54;26.33;;;15.80;;
75375;SDS011;63958;52.004;5.908;2022-11-20T11:17:28;23.27;;;13.90;;
75375;SDS011;63958;52.004;5.908;2022-11-20T11:19:59;20.05;;;12.20;;
75375;SDS011;63958;52.004;5.908;2022-11-20T11:22:30;20.15;;;12.20;;
75375;SDS011;63958;52.004;5.908;2022-11-20T11:25:01;24.58;;;16.20;;
75375;SDS011;63958;52.004;5.908;2022-11-20T11:27:31;25.45;;;15.60;;
75375;SDS011;63958;52.004;5.908;2022-11-20T11:30:11;26.17;;;16.25;;
75375;SDS011;63958;52.004;5.908;2022-11-20T11:32:44;20.60;;;13.35;;
75375;SDS011;63958;52.004;5.908;2022-11-20T11:35:21;26.35;;;15.23;;
75375;SDS011;63958;52.004;5.908;2022-11-20T11:37:53;20.75;;;13.88;;
75375;SDS011;63958;52.004;5.908;2022-11-20T11:40:31;21.80;;;13.50;;
75375;SDS011;63958;52.004;5.908;2022-11-20T11:43:01;24.17;;;15.50;;
75375;SDS011;63958;52.004;5.908;2022-11-20T11:45:54;24.23;;;16.08;;
75375;SDS011;63958;52.004;5.908;2022-11-20T11:48:23;20.65;;;13.88;;
75375;SDS011;63958;52.004;5.908;2022-11-20T11:50:52;24.15;;;15.98;;
75375;SDS011;63958;52.004;5.908;2022-11-20T11:53:21;21.45;;;13.65;;
75375;SDS011;63958;52.004;5.908;2022-11-20T11:55:54;26.00;;;15.77;;
75375;SDS011;63958;52.004;5.908;2022-11-20T11:58:34;22.90;;;14.95;;
75375;SDS011;63958;52.004;5.908;2022-11-20T12:03:48;29.25;;;18.92;;
75375;SDS011;63958;52.004;5.908;2022-11-20T12:06:24;24.85;;;17.05;;
75375;SDS011;63958;52.004;5.908;2022-11-20T12:08:55;28.23;;;18.00;;
75375;SDS011;63958;52.004;5.908;2022-11-20T12:11:29;24.10;;;15.73;;
75375;SDS011;63958;52.004;5.908;2022-11-20T12:14:02;22.45;;;15.30;;
75375;SDS011;63958;52.004;5.908;2022-11-20T12:16:38;32.03;;;19.05;;
75375;SDS011;63958;52.004;5.908;2022-11-20T12:19:11;22.45;;;14.85;;
75375;SDS011;63958;52.004;5.908;2022-11-20T12:21:45;26.27;;;17.17;;
75375;SDS011;63958;52.004;5.908;2022-11-20T12:24:28;30.85;;;20.30;;
75375;SDS011;63958;52.004;5.908;2022-11-20T12:27:23;25.08;;;16.90;;
75375;SDS011;63958;52.004;5.908;2022-11-20T12:30:07;26.77;;;16.80;;
75375;SDS011;63958;52.004;5.908;2022-11-20T12:32:42;26.70;;;17.17;;
75375;SDS011;63958;52.004;5.908;2022-11-20T12:35:38;28.15;;;18.70;;
75375;SDS011;63958;52.004;5.908;2022-11-20T12:41:06;26.50;;;17.10;;
75375;SDS011;63958;52.004;5.908;2022-11-20T12:44:03;26.75;;;17.73;;
75375;SDS011;63958;52.004;5.908;2022-11-20T12:47:06;17.60;;;10.65;;
75375;SDS011;63958;52.004;5.908;2022-11-20T12:49:47;19.25;;;13.75;;
75375;SDS011;63958;52.004;5.908;2022-11-20T12:52:30;23.38;;;16.15;;
75375;SDS011;63958;52.004;5.908;2022-11-20T12:55:16;23.08;;;14.57;;
75375;SDS011;63958;52.004;5.908;2022-11-20T12:57:53;22.73;;;15.38;;
75375;SDS011;63958;52.004;5.908;2022-11-20T13:00:25;22.30;;;16.25;;
75375;SDS011;63958;52.004;5.908;2022-11-20T13:03:12;26.00;;;17.58;;
75375;SDS011;63958;52.004;5.908;2022-11-20T13:05:55;25.17;;;16.08;;
75375;SDS011;63958;52.004;5.908;2022-11-20T13:08:34;25.95;;;17.23;;
75375;SDS011;63958;52.004;5.908;2022-11-20T13:11:07;27.77;;;18.70;;
75375;SDS011;63958;52.004;5.908;2022-11-20T13:13:50;23.13;;;15.02;;
75375;SDS011;63958;52.004;5.908;2022-11-20T13:16:33;24.95;;;17.27;;
75375;SDS011;63958;52.004;5.908;2022-11-20T13:19:08;25.65;;;17.02;;
75375;SDS011;63958;52.004;5.908;2022-11-20T13:21:40;29.40;;;18.20;;
75375;SDS011;63958;52.004;5.908;2022-11-20T13:24:25;29.23;;;20.13;;
75375;SDS011;63958;52.004;5.908;2022-11-20T13:30:01;30.83;;;21.25;;
75375;SDS011;63958;52.004;5.908;2022-11-20T13:32:47;36.03;;;21.17;;
75375;SDS011;63958;52.004;5.908;2022-11-20T13:35:28;32.50;;;21.55;;
75375;SDS011;63958;52.004;5.908;2022-11-20T13:37:59;33.88;;;22.52;;
75375;SDS011;63958;52.004;5.908;2022-11-20T13:40:35;30.00;;;20.17;;
75375;SDS011;63958;52.004;5.908;2022-11-20T13:43:18;31.13;;;19.88;;
75375;SDS011;63958;52.004;5.908;2022-11-20T13:45:54;26.25;;;16.00;;
75375;SDS011;63958;52.004;5.908;2022-11-20T13:48:30;34.53;;;21.23;;
75375;SDS011;63958;52.004;5.908;2022-11-20T13:51:12;31.67;;;20.98;;
75375;SDS011;63958;52.004;5.908;2022-11-20T13:53:57;31.63;;;20.90;;
75375;SDS011;63958;52.004;5.908;2022-11-20T13:56:43;33.35;;;20.92;;
75375;SDS011;63958;52.004;5.908;2022-11-20T13:59:29;30.55;;;17.20;;
75375;SDS011;63958;52.004;5.908;2022-11-20T14:02:10;29.65;;;18.27;;
75375;SDS011;63958;52.004;5.908;2022-11-20T14:07:11;35.33;;;19.88;;
75375;SDS011;63958;52.004;5.908;2022-11-20T14:09:48;36.67;;;22.45;;
75375;SDS011;63958;52.004;5.908;2022-11-20T14:12:22;39.08;;;24.95;;
75375;SDS011;63958;52.004;5.908;2022-11-20T14:14:56;39.72;;;23.20;;
75375;SDS011;63958;52.004;5.908;2022-11-20T14:17:29;29.90;;;18.63;;
75375;SDS011;63958;52.004;5.908;2022-11-20T14:20:00;36.08;;;20.90;;
75375;SDS011;63958;52.004;5.908;2022-11-20T14:22:31;29.65;;;17.73;;
75375;SDS011;63958;52.004;5.908;2022-11-20T14:25:02;35.30;;;22.65;;
75375;SDS011;63958;52.004;5.908;2022-11-20T14:27:38;37.30;;;23.70;;
75375;SDS011;63958;52.004;5.908;2022-11-20T14:30:12;37.63;;;22.17;;
75375;SDS011;63958;52.004;5.908;2022-11-20T14:32:44;37.63;;;23.02;;
75375;SDS011;63958;52.004;5.908;2022-11-20T14:35:17;44.97;;;24.38;;
75375;SDS011;63958;52.004;5.908;2022-11-20T14:37:49;40.20;;;24.35;;
75375;SDS011;63958;52.004;5.908;2022-11-20T14:40:22;33.80;;;21.38;;
75375;SDS011;63958;52.004;5.908;2022-11-20T14:42:59;34.38;;;20.10;;
75375;SDS011;63958;52.004;5.908;2022-11-20T14:45:28;34.70;;;21.25;;
75375;SDS011;63958;52.004;5.908;2022-11-20T14:47:57;37.40;;;23.02;;
75375;SDS011;63958;52.004;5.908;2022-11-20T14:50:28;36.22;;;22.27;;
75375;SDS011;63958;52.004;5.908;2022-11-20T14:52:58;33.88;;;20.58;;
75375;SDS011;63958;52.004;5.908;2022-11-20T14:55:28;38.08;;;22.08;;
75375;SDS011;63958;52.004;5.908;2022-11-20T14:58:03;34.78;;;21.73;;
75375;SDS011;63958;52.004;5.908;2022-11-20T15:00:34;37.42;;;24.25;;
75375;SDS011;63958;52.004;5.908;2022-11-20T15:03:13;39.13;;;24.05;;
75375;SDS011;63958;52.004;5.908;2022-11-20T15:05:44;37.70;;;21.95;;
75375;SDS011;63958;52.004;5.908;2022-11-20T15:08:15;49.60;;;26.35;;
75375;SDS011;63958;52.004;5.908;2022-11-20T15:10:45;42.13;;;25.00;;
75375;SDS011;63958;52.004;5.908;2022-11-20T15:13:19;40.85;;;25.50;;
75375;SDS011;63958;52.004;5.908;2022-11-20T15:15:54;36.97;;;23.20;;
75375;SDS011;63958;52.004;5.908;2022-11-20T15:18:26;37.08;;;22.48;;
75375;SDS011;63958;52.004;5.908;2022-11-20T15:20:57;39.60;;;25.00;;
75375;SDS011;63958;52.004;5.908;2022-11-20T15:23:29;38.47;;;23.35;;
75375;SDS011;63958;52.004;5.908;2022-11-20T15:25:58;42.05;;;25.50;;
75375;SDS011;63958;52.004;5.908;2022-11-20T15:28:30;43.55;;;26.60;;